sensor_id;sensor_type;location;lat;lon;timestamp;P1;durP1;ratioP1;P2;durP2;ratioP2
12467;SDS011;57850;52.922;6.256;2023-04-28T00:01:09;14.05;;;9.68;;
12467;SDS011;57850;52.922;6.256;2023-04-28T00:03:36;14.07;;;9.80;;
12467;SDS011;57850;52.922;6.256;2023-04-28T00:06:02;13.40;;;9.27;;
12467;SDS011;57850;52.922;6.256;2023-04-28T00:08:30;15.07;;;9.57;;
12467;SDS011;57850;52.922;6.256;2023-04-28T00:10:56;12.93;;;9.15;;
12467;SDS011;57850;52.922;6.256;2023-04-28T00:13:23;14.80;;;9.25;;
12467;SDS011;57850;52.922;6.256;2023-04-28T00:15:51;15.57;;;10.50;;
12467;SDS011;57850;52.922;6.256;2023-04-28T00:18:18;13.40;;;8.75;;
12467;SDS011;57850;52.922;6.256;2023-04-28T00:20:45;11.85;;;9.38;;
12467;SDS011;57850;52.922;6.256;2023-04-28T00:23:11;10.57;;;8.25;;
12467;SDS011;57850;52.922;6.256;2023-04-28T00:25:38;12.80;;;8.43;;
12467;SDS011;57850;52.922;6.256;2023-04-28T00:28:04;13.23;;;8.85;;
12467;SDS011;57850;52.922;6.256;2023-04-28T00:30:31;13.10;;;8.43;;
12467;SDS011;57850;52.922;6.256;2023-04-28T00:32:59;13.45;;;8.93;;
12467;SDS011;57850;52.922;6.256;2023-04-28T00:35:25;16.23;;;8.63;;
12467;SDS011;57850;52.922;6.256;2023-04-28T00:37:52;10.60;;;8.25;;
12467;SDS011;57850;52.922;6.256;2023-04-28T00:40:18;9.88;;;8.80;;
12467;SDS011;57850;52.922;6.256;2023-04-28T00:42:45;10.43;;;8.13;;
12467;SDS011;57850;52.922;6.256;2023-04-28T00:45:12;11.52;;;8.68;;
12467;SDS011;57850;52.922;6.256;2023-04-28T00:47:38;12.23;;;8.25;;
12467;SDS011;57850;52.922;6.256;2023-04-28T00:50:07;9.90;;;7.88;;
12467;SDS011;57850;52.922;6.256;2023-04-28T00:52:34;10.68;;;7.97;;
12467;SDS011;57850;52.922;6.256;2023-04-28T00:55:02;14.30;;;7.95;;
12467;SDS011;57850;52.922;6.256;2023-04-28T00:57:30;12.27;;;8.25;;
12467;SDS011;57850;52.922;6.256;2023-04-28T00:59:57;12.77;;;8.13;;
12467;SDS011;57850;52.922;6.256;2023-04-28T01:02:24;13.75;;;8.65;;
12467;SDS011;57850;52.922;6.256;2023-04-28T01:04:53;10.98;;;8.10;;
12467;SDS011;57850;52.922;6.256;2023-04-28T01:07:22;12.18;;;7.95;;
12467;SDS011;57850;52.922;6.256;2023-04-28T01:09:49;11.80;;;8.02;;
12467;SDS011;57850;52.922;6.256;2023-04-28T01:12:15;12.30;;;8.30;;
12467;SDS011;57850;52.922;6.256;2023-04-28T01:14:42;10.45;;;8.80;;
12467;SDS011;57850;52.922;6.256;2023-04-28T01:17:09;13.63;;;8.18;;
12467;SDS011;57850;52.922;6.256;2023-04-28T01:19:36;10.38;;;7.90;;
12467;SDS011;57850;52.922;6.256;2023-04-28T01:22:03;10.02;;;8.18;;
12467;SDS011;57850;52.922;6.256;2023-04-28T01:24:31;11.18;;;8.05;;
12467;SDS011;57850;52.922;6.256;2023-04-28T01:26:57;10.00;;;7.95;;
12467;SDS011;57850;52.922;6.256;2023-04-28T01:29:24;11.27;;;7.50;;
12467;SDS011;57850;52.922;6.256;2023-04-28T01:31:50;11.10;;;8.73;;
12467;SDS011;57850;52.922;6.256;2023-04-28T01:34:17;9.57;;;7.85;;
12467;SDS011;57850;52.922;6.256;2023-04-28T01:36:43;11.70;;;8.70;;
12467;SDS011;57850;52.922;6.256;2023-04-28T01:39:10;11.93;;;8.63;;
12467;SDS011;57850;52.922;6.256;2023-04-28T01:41:38;12.52;;;8.40;;
12467;SDS011;57850;52.922;6.256;2023-04-28T01:44:04;11.30;;;7.95;;
12467;SDS011;57850;52.922;6.256;2023-04-28T01:46:31;13.10;;;8.65;;
12467;SDS011;57850;52.922;6.256;2023-04-28T01:48:58;11.82;;;8.35;;
12467;SDS011;57850;52.922;6.256;2023-04-28T01:51:25;12.02;;;8.43;;
12467;SDS011;57850;52.922;6.256;2023-04-28T01:53:51;11.65;;;8.38;;
12467;SDS011;57850;52.922;6.256;2023-04-28T01:56:18;13.07;;;8.48;;
12467;SDS011;57850;52.922;6.256;2023-04-28T01:58:46;13.05;;;8.05;;
12467;SDS011;57850;52.922;6.256;2023-04-28T02:01:12;9.75;;;7.65;;
12467;SDS011;57850;52.922;6.256;2023-04-28T02:03:39;12.15;;;8.30;;
12467;SDS011;57850;52.922;6.256;2023-04-28T02:06:05;10.25;;;8.30;;
12467;SDS011;57850;52.922;6.256;2023-04-28T02:08:32;11.90;;;9.13;;
12467;SDS011;57850;52.922;6.256;2023-04-28T02:10:58;9.73;;;8.02;;
12467;SDS011;57850;52.922;6.256;2023-04-28T02:13:25;16.55;;;9.25;;
12467;SDS011;57850;52.922;6.256;2023-04-28T02:15:53;15.05;;;8.77;;
12467;SDS011;57850;52.922;6.256;2023-04-28T02:18:20;10.95;;;8.38;;
12467;SDS011;57850;52.922;6.256;2023-04-28T02:20:46;13.77;;;9.10;;
12467;SDS011;57850;52.922;6.256;2023-04-28T02:23:13;11.77;;;9.32;;
12467;SDS011;57850;52.922;6.256;2023-04-28T02:25:40;15.38;;;9.45;;
12467;SDS011;57850;52.922;6.256;2023-04-28T02:28:09;12.77;;;9.95;;
12467;SDS011;57850;52.922;6.256;2023-04-28T02:30:35;13.57;;;10.13;;
12467;SDS011;57850;52.922;6.256;2023-04-28T02:33:03;14.68;;;9.65;;
12467;SDS011;57850;52.922;6.256;2023-04-28T02:35:29;12.95;;;8.98;;
12467;SDS011;57850;52.922;6.256;2023-04-28T02:37:56;12.15;;;9.27;;
12467;SDS011;57850;52.922;6.256;2023-04-28T02:40:23;13.63;;;10.07;;
12467;SDS011;57850;52.922;6.256;2023-04-28T02:42:49;15.02;;;9.77;;
12467;SDS011;57850;52.922;6.256;2023-04-28T02:45:16;14.35;;;9.98;;
12467;SDS011;57850;52.922;6.256;2023-04-28T02:47:42;13.90;;;9.52;;
12467;SDS011;57850;52.922;6.256;2023-04-28T02:50:10;14.82;;;10.05;;
12467;SDS011;57850;52.922;6.256;2023-04-28T02:52:37;15.35;;;9.50;;
12467;SDS011;57850;52.922;6.256;2023-04-28T02:55:05;17.13;;;9.85;;
12467;SDS011;57850;52.922;6.256;2023-04-28T02:57:32;16.33;;;10.10;;
12467;SDS011;57850;52.922;6.256;2023-04-28T02:59:58;11.95;;;9.35;;
12467;SDS011;57850;52.922;6.256;2023-04-28T03:02:25;13.90;;;9.25;;
12467;SDS011;57850;52.922;6.256;2023-04-28T03:04:51;12.23;;;9.43;;
12467;SDS011;57850;52.922;6.256;2023-04-28T03:07:19;12.68;;;10.00;;
12467;SDS011;57850;52.922;6.256;2023-04-28T03:09:46;13.80;;;9.80;;
12467;SDS011;57850;52.922;6.256;2023-04-28T03:12:12;13.20;;;9.73;;
12467;SDS011;57850;52.922;6.256;2023-04-28T03:14:39;12.82;;;9.68;;
12467;SDS011;57850;52.922;6.256;2023-04-28T03:17:05;12.82;;;9.80;;
12467;SDS011;57850;52.922;6.256;2023-04-28T03:19:32;16.05;;;9.82;;
12467;SDS011;57850;52.922;6.256;2023-04-28T03:21:58;13.63;;;9.73;;
12467;SDS011;57850;52.922;6.256;2023-04-28T03:24:26;17.27;;;10.18;;
12467;SDS011;57850;52.922;6.256;2023-04-28T03:26:53;16.00;;;10.05;;
12467;SDS011;57850;52.922;6.256;2023-04-28T03:29:19;14.57;;;9.80;;
12467;SDS011;57850;52.922;6.256;2023-04-28T03:31:48;15.45;;;10.20;;
12467;SDS011;57850;52.922;6.256;2023-04-28T03:34:14;12.07;;;9.70;;
12467;SDS011;57850;52.922;6.256;2023-04-28T03:36:41;13.77;;;10.50;;
12467;SDS011;57850;52.922;6.256;2023-04-28T03:39:07;16.10;;;10.57;;
12467;SDS011;57850;52.922;6.256;2023-04-28T03:41:36;13.38;;;10.77;;
12467;SDS011;57850;52.922;6.256;2023-04-28T03:44:02;14.32;;;9.77;;
12467;SDS011;57850;52.922;6.256;2023-04-28T03:46:29;14.10;;;9.95;;
12467;SDS011;57850;52.922;6.256;2023-04-28T03:48:55;16.27;;;10.73;;
12467;SDS011;57850;52.922;6.256;2023-04-28T03:51:22;16.30;;;11.48;;
12467;SDS011;57850;52.922;6.256;2023-04-28T03:53:48;17.60;;;11.52;;
12467;SDS011;57850;52.922;6.256;2023-04-28T03:56:15;14.85;;;11.15;;
12467;SDS011;57850;52.922;6.256;2023-04-28T03:58:43;16.30;;;11.82;;
12467;SDS011;57850;52.922;6.256;2023-04-28T04:01:10;17.48;;;10.15;;
12467;SDS011;57850;52.922;6.256;2023-04-28T04:03:36;17.52;;;11.50;;
12467;SDS011;57850;52.922;6.256;2023-04-28T04:06:03;16.17;;;10.38;;
12467;SDS011;57850;52.922;6.256;2023-04-28T04:08:30;15.07;;;10.90;;
12467;SDS011;57850;52.922;6.256;2023-04-28T04:10:57;15.05;;;11.23;;
12467;SDS011;57850;52.922;6.256;2023-04-28T04:13:24;14.85;;;10.90;;
12467;SDS011;57850;52.922;6.256;2023-04-28T04:15:52;16.20;;;11.30;;
12467;SDS011;57850;52.922;6.256;2023-04-28T04:18:18;17.85;;;11.57;;
12467;SDS011;57850;52.922;6.256;2023-04-28T04:20:45;17.67;;;12.30;;
12467;SDS011;57850;52.922;6.256;2023-04-28T04:23:11;14.95;;;11.73;;
12467;SDS011;57850;52.922;6.256;2023-04-28T04:25:38;17.92;;;11.32;;
12467;SDS011;57850;52.922;6.256;2023-04-28T04:28:05;15.55;;;11.23;;
12467;SDS011;57850;52.922;6.256;2023-04-28T04:30:31;17.10;;;11.52;;
12467;SDS011;57850;52.922;6.256;2023-04-28T04:32:59;20.77;;;11.85;;
12467;SDS011;57850;52.922;6.256;2023-04-28T04:35:26;21.77;;;12.85;;
12467;SDS011;57850;52.922;6.256;2023-04-28T04:37:52;20.02;;;12.25;;
12467;SDS011;57850;52.922;6.256;2023-04-28T04:40:19;18.02;;;12.60;;
12467;SDS011;57850;52.922;6.256;2023-04-28T04:42:46;16.48;;;12.63;;
12467;SDS011;57850;52.922;6.256;2023-04-28T04:45:12;18.45;;;12.43;;
12467;SDS011;57850;52.922;6.256;2023-04-28T04:47:39;18.15;;;11.90;;
12467;SDS011;57850;52.922;6.256;2023-04-28T04:50:07;18.52;;;12.00;;
12467;SDS011;57850;52.922;6.256;2023-04-28T04:52:36;17.90;;;12.25;;
12467;SDS011;57850;52.922;6.256;2023-04-28T04:55:03;20.45;;;13.00;;
12467;SDS011;57850;52.922;6.256;2023-04-28T04:57:31;19.50;;;13.18;;
12467;SDS011;57850;52.922;6.256;2023-04-28T04:59:57;17.33;;;12.68;;
12467;SDS011;57850;52.922;6.256;2023-04-28T05:02:24;15.90;;;11.90;;
12467;SDS011;57850;52.922;6.256;2023-04-28T05:04:50;18.33;;;13.38;;
12467;SDS011;57850;52.922;6.256;2023-04-28T05:07:18;17.40;;;12.57;;
12467;SDS011;57850;52.922;6.256;2023-04-28T05:09:45;16.80;;;12.30;;
12467;SDS011;57850;52.922;6.256;2023-04-28T05:12:11;22.45;;;12.88;;
12467;SDS011;57850;52.922;6.256;2023-04-28T05:14:40;18.10;;;12.10;;
12467;SDS011;57850;52.922;6.256;2023-04-28T05:17:06;18.42;;;13.02;;
12467;SDS011;57850;52.922;6.256;2023-04-28T05:19:33;18.13;;;12.68;;
12467;SDS011;57850;52.922;6.256;2023-04-28T05:22:00;19.35;;;12.88;;
12467;SDS011;57850;52.922;6.256;2023-04-28T05:24:28;18.20;;;12.07;;
12467;SDS011;57850;52.922;6.256;2023-04-28T05:26:55;17.40;;;12.05;;
12467;SDS011;57850;52.922;6.256;2023-04-28T05:29:24;17.50;;;11.63;;
12467;SDS011;57850;52.922;6.256;2023-04-28T05:31:50;16.80;;;12.10;;
12467;SDS011;57850;52.922;6.256;2023-04-28T05:34:17;21.60;;;13.75;;
12467;SDS011;57850;52.922;6.256;2023-04-28T05:36:44;16.48;;;12.27;;
12467;SDS011;57850;52.922;6.256;2023-04-28T05:39:10;23.63;;;12.20;;
12467;SDS011;57850;52.922;6.256;2023-04-28T05:41:38;16.20;;;11.88;;
12467;SDS011;57850;52.922;6.256;2023-04-28T05:44:05;19.38;;;13.25;;
12467;SDS011;57850;52.922;6.256;2023-04-28T05:46:31;16.83;;;12.82;;
12467;SDS011;57850;52.922;6.256;2023-04-28T05:48:58;16.38;;;12.07;;
12467;SDS011;57850;52.922;6.256;2023-04-28T05:51:24;18.17;;;12.77;;
12467;SDS011;57850;52.922;6.256;2023-04-28T05:53:51;17.52;;;11.52;;
12467;SDS011;57850;52.922;6.256;2023-04-28T05:56:18;15.35;;;11.23;;
12467;SDS011;57850;52.922;6.256;2023-04-28T05:58:46;15.70;;;11.55;;
12467;SDS011;57850;52.922;6.256;2023-04-28T06:01:14;17.17;;;12.65;;
12467;SDS011;57850;52.922;6.256;2023-04-28T06:03:41;19.70;;;11.40;;
12467;SDS011;57850;52.922;6.256;2023-04-28T06:06:09;17.17;;;11.73;;
12467;SDS011;57850;52.922;6.256;2023-04-28T06:08:36;17.75;;;12.63;;
12467;SDS011;57850;52.922;6.256;2023-04-28T06:11:03;16.13;;;11.65;;
12467;SDS011;57850;52.922;6.256;2023-04-28T06:13:30;15.55;;;11.55;;
12467;SDS011;57850;52.922;6.256;2023-04-28T06:15:57;17.08;;;12.18;;
12467;SDS011;57850;52.922;6.256;2023-04-28T06:18:24;17.20;;;11.35;;
12467;SDS011;57850;52.922;6.256;2023-04-28T06:20:51;16.38;;;11.88;;
12467;SDS011;57850;52.922;6.256;2023-04-28T06:23:17;15.63;;;11.50;;
12467;SDS011;57850;52.922;6.256;2023-04-28T06:25:44;15.65;;;10.93;;
12467;SDS011;57850;52.922;6.256;2023-04-28T06:28:10;15.98;;;11.20;;
12467;SDS011;57850;52.922;6.256;2023-04-28T06:30:38;17.75;;;11.13;;
12467;SDS011;57850;52.922;6.256;2023-04-28T06:33:07;17.10;;;11.70;;
12467;SDS011;57850;52.922;6.256;2023-04-28T06:35:34;18.52;;;11.93;;
12467;SDS011;57850;52.922;6.256;2023-04-28T06:38:02;16.70;;;11.50;;
12467;SDS011;57850;52.922;6.256;2023-04-28T06:40:29;15.55;;;11.27;;
12467;SDS011;57850;52.922;6.256;2023-04-28T06:42:56;15.65;;;11.07;;
12467;SDS011;57850;52.922;6.256;2023-04-28T06:45:23;13.63;;;11.18;;
12467;SDS011;57850;52.922;6.256;2023-04-28T06:47:49;16.27;;;11.95;;
12467;SDS011;57850;52.922;6.256;2023-04-28T06:50:17;17.88;;;11.00;;
12467;SDS011;57850;52.922;6.256;2023-04-28T06:52:44;18.75;;;11.68;;
12467;SDS011;57850;52.922;6.256;2023-04-28T06:55:15;20.50;;;11.85;;
12467;SDS011;57850;52.922;6.256;2023-04-28T06:57:42;14.38;;;10.18;;
12467;SDS011;57850;52.922;6.256;2023-04-28T07:00:09;17.10;;;10.70;;
12467;SDS011;57850;52.922;6.256;2023-04-28T07:02:36;17.75;;;9.65;;
12467;SDS011;57850;52.922;6.256;2023-04-28T07:05:03;14.95;;;10.43;;
12467;SDS011;57850;52.922;6.256;2023-04-28T07:07:31;16.33;;;10.35;;
12467;SDS011;57850;52.922;6.256;2023-04-28T07:09:58;12.85;;;10.43;;
12467;SDS011;57850;52.922;6.256;2023-04-28T07:12:26;12.10;;;10.10;;
12467;SDS011;57850;52.922;6.256;2023-04-28T07:14:52;13.15;;;9.93;;
12467;SDS011;57850;52.922;6.256;2023-04-28T07:17:19;13.68;;;9.80;;
12467;SDS011;57850;52.922;6.256;2023-04-28T07:19:46;14.20;;;10.38;;
12467;SDS011;57850;52.922;6.256;2023-04-28T07:22:13;17.40;;;10.90;;
12467;SDS011;57850;52.922;6.256;2023-04-28T07:24:42;12.88;;;10.07;;
12467;SDS011;57850;52.922;6.256;2023-04-28T07:27:08;18.58;;;10.50;;
12467;SDS011;57850;52.922;6.256;2023-04-28T07:29:35;14.10;;;10.07;;
12467;SDS011;57850;52.922;6.256;2023-04-28T07:32:01;12.20;;;9.20;;
12467;SDS011;57850;52.922;6.256;2023-04-28T07:34:29;13.20;;;9.15;;
12467;SDS011;57850;52.922;6.256;2023-04-28T07:36:55;13.15;;;9.18;;
12467;SDS011;57850;52.922;6.256;2023-04-28T07:39:22;13.23;;;10.65;;
12467;SDS011;57850;52.922;6.256;2023-04-28T07:41:50;13.77;;;9.23;;
12467;SDS011;57850;52.922;6.256;2023-04-28T07:44:16;13.82;;;9.40;;
12467;SDS011;57850;52.922;6.256;2023-04-28T07:46:43;14.45;;;9.07;;
12467;SDS011;57850;52.922;6.256;2023-04-28T07:49:10;16.83;;;9.88;;
12467;SDS011;57850;52.922;6.256;2023-04-28T07:51:36;13.82;;;9.35;;
12467;SDS011;57850;52.922;6.256;2023-04-28T07:54:03;12.95;;;8.60;;
12467;SDS011;57850;52.922;6.256;2023-04-28T07:56:29;13.45;;;9.18;;
12467;SDS011;57850;52.922;6.256;2023-04-28T07:58:57;11.77;;;9.18;;
12467;SDS011;57850;52.922;6.256;2023-04-28T08:01:24;12.65;;;8.93;;
12467;SDS011;57850;52.922;6.256;2023-04-28T08:03:50;11.85;;;9.20;;
12467;SDS011;57850;52.922;6.256;2023-04-28T08:06:17;15.27;;;8.77;;
12467;SDS011;57850;52.922;6.256;2023-04-28T08:08:44;13.93;;;8.57;;
12467;SDS011;57850;52.922;6.256;2023-04-28T08:11:11;13.20;;;9.25;;
12467;SDS011;57850;52.922;6.256;2023-04-28T08:13:37;13.25;;;8.75;;
12467;SDS011;57850;52.922;6.256;2023-04-28T08:16:05;15.02;;;9.82;;
12467;SDS011;57850;52.922;6.256;2023-04-28T08:18:32;13.05;;;10.02;;
12467;SDS011;57850;52.922;6.256;2023-04-28T08:20:58;16.27;;;10.25;;
12467;SDS011;57850;52.922;6.256;2023-04-28T08:23:25;13.55;;;10.27;;
12467;SDS011;57850;52.922;6.256;2023-04-28T08:25:52;13.43;;;9.48;;
12467;SDS011;57850;52.922;6.256;2023-04-28T08:28:19;13.35;;;9.60;;
12467;SDS011;57850;52.922;6.256;2023-04-28T08:30:45;11.27;;;9.57;;
12467;SDS011;57850;52.922;6.256;2023-04-28T08:33:13;12.40;;;9.52;;
12467;SDS011;57850;52.922;6.256;2023-04-28T08:35:40;12.40;;;9.13;;
12467;SDS011;57850;52.922;6.256;2023-04-28T08:38:06;11.13;;;9.10;;
12467;SDS011;57850;52.922;6.256;2023-04-28T08:40:37;12.27;;;9.82;;
12467;SDS011;57850;52.922;6.256;2023-04-28T08:43:04;13.50;;;10.13;;
12467;SDS011;57850;52.922;6.256;2023-04-28T08:45:31;14.07;;;9.02;;
12467;SDS011;57850;52.922;6.256;2023-04-28T08:48:05;12.52;;;9.38;;
12467;SDS011;57850;52.922;6.256;2023-04-28T08:50:40;13.18;;;9.85;;
12467;SDS011;57850;52.922;6.256;2023-04-28T08:53:13;11.30;;;9.38;;
12467;SDS011;57850;52.922;6.256;2023-04-28T08:55:45;14.40;;;9.38;;
12467;SDS011;57850;52.922;6.256;2023-04-28T08:58:14;11.27;;;9.70;;
12467;SDS011;57850;52.922;6.256;2023-04-28T09:00:41;14.70;;;11.00;;
12467;SDS011;57850;52.922;6.256;2023-04-28T09:03:07;14.05;;;10.02;;
12467;SDS011;57850;52.922;6.256;2023-04-28T09:05:35;12.60;;;10.10;;
12467;SDS011;57850;52.922;6.256;2023-04-28T09:08:03;15.15;;;10.75;;
12467;SDS011;57850;52.922;6.256;2023-04-28T09:10:30;15.25;;;9.95;;
12467;SDS011;57850;52.922;6.256;2023-04-28T09:12:56;16.15;;;11.57;;
12467;SDS011;57850;52.922;6.256;2023-04-28T09:15:26;18.55;;;10.80;;
12467;SDS011;57850;52.922;6.256;2023-04-28T09:17:54;12.23;;;10.13;;
12467;SDS011;57850;52.922;6.256;2023-04-28T09:20:21;16.13;;;11.93;;
12467;SDS011;57850;52.922;6.256;2023-04-28T09:22:50;13.88;;;10.93;;
12467;SDS011;57850;52.922;6.256;2023-04-28T09:25:20;13.15;;;10.93;;
12467;SDS011;57850;52.922;6.256;2023-04-28T09:27:47;11.40;;;9.50;;
12467;SDS011;57850;52.922;6.256;2023-04-28T09:30:14;12.88;;;10.05;;
12467;SDS011;57850;52.922;6.256;2023-04-28T09:32:41;9.77;;;8.40;;
12467;SDS011;57850;52.922;6.256;2023-04-28T09:35:08;10.68;;;8.98;;
12467;SDS011;57850;52.922;6.256;2023-04-28T09:37:35;10.57;;;8.95;;
12467;SDS011;57850;52.922;6.256;2023-04-28T09:40:02;11.77;;;9.70;;
12467;SDS011;57850;52.922;6.256;2023-04-28T09:42:34;14.50;;;9.73;;
12467;SDS011;57850;52.922;6.256;2023-04-28T09:45:01;13.48;;;9.10;;
12467;SDS011;57850;52.922;6.256;2023-04-28T09:47:30;15.07;;;9.85;;
12467;SDS011;57850;52.922;6.256;2023-04-28T09:49:59;12.82;;;8.80;;
12467;SDS011;57850;52.922;6.256;2023-04-28T09:52:26;10.80;;;8.60;;
12467;SDS011;57850;52.922;6.256;2023-04-28T09:54:53;11.93;;;9.60;;
12467;SDS011;57850;52.922;6.256;2023-04-28T09:57:21;13.82;;;8.57;;
12467;SDS011;57850;52.922;6.256;2023-04-28T09:59:50;11.48;;;8.63;;
12467;SDS011;57850;52.922;6.256;2023-04-28T10:02:19;12.40;;;9.25;;
12467;SDS011;57850;52.922;6.256;2023-04-28T10:04:47;10.18;;;8.85;;
12467;SDS011;57850;52.922;6.256;2023-04-28T10:07:14;11.75;;;8.13;;
12467;SDS011;57850;52.922;6.256;2023-04-28T10:09:42;11.40;;;8.45;;
12467;SDS011;57850;52.922;6.256;2023-04-28T10:12:11;11.00;;;7.75;;
12467;SDS011;57850;52.922;6.256;2023-04-28T10:14:39;11.63;;;8.43;;
12467;SDS011;57850;52.922;6.256;2023-04-28T10:17:07;11.05;;;9.13;;
12467;SDS011;57850;52.922;6.256;2023-04-28T10:19:34;9.82;;;8.85;;
12467;SDS011;57850;52.922;6.256;2023-04-28T10:22:05;13.07;;;9.35;;
12467;SDS011;57850;52.922;6.256;2023-04-28T10:24:48;9.43;;;8.40;;
12467;SDS011;57850;52.922;6.256;2023-04-28T10:27:29;11.00;;;8.75;;
12467;SDS011;57850;52.922;6.256;2023-04-28T10:30:08;12.10;;;8.07;;
12467;SDS011;57850;52.922;6.256;2023-04-28T10:32:37;10.30;;;8.35;;
12467;SDS011;57850;52.922;6.256;2023-04-28T10:38:09;10.35;;;8.50;;
12467;SDS011;57850;52.922;6.256;2023-04-28T10:40:37;14.68;;;8.50;;
12467;SDS011;57850;52.922;6.256;2023-04-28T10:43:05;9.07;;;7.82;;
12467;SDS011;57850;52.922;6.256;2023-04-28T10:51:27;8.77;;;7.47;;
12467;SDS011;57850;52.922;6.256;2023-04-28T10:54:06;9.18;;;7.90;;
12467;SDS011;57850;52.922;6.256;2023-04-28T10:57:13;11.40;;;7.90;;
12467;SDS011;57850;52.922;6.256;2023-04-28T10:59:41;8.65;;;7.78;;
12467;SDS011;57850;52.922;6.256;2023-04-28T11:05:16;13.30;;;8.82;;
12467;SDS011;57850;52.922;6.256;2023-04-28T11:13:50;10.88;;;7.80;;
12467;SDS011;57850;52.922;6.256;2023-04-28T11:16:18;8.82;;;7.95;;
12467;SDS011;57850;52.922;6.256;2023-04-28T11:18:53;8.85;;;7.90;;
12467;SDS011;57850;52.922;6.256;2023-04-28T11:21:24;9.65;;;7.85;;
12467;SDS011;57850;52.922;6.256;2023-04-28T11:23:53;9.88;;;7.32;;
12467;SDS011;57850;52.922;6.256;2023-04-28T11:26:20;9.90;;;8.30;;
12467;SDS011;57850;52.922;6.256;2023-04-28T11:28:50;10.90;;;8.63;;
12467;SDS011;57850;52.922;6.256;2023-04-28T11:31:18;12.70;;;8.52;;
12467;SDS011;57850;52.922;6.256;2023-04-28T11:33:51;9.90;;;8.90;;
12467;SDS011;57850;52.922;6.256;2023-04-28T11:36:24;10.77;;;9.00;;
12467;SDS011;57850;52.922;6.256;2023-04-28T11:38:52;12.35;;;9.93;;
12467;SDS011;57850;52.922;6.256;2023-04-28T11:41:18;15.52;;;11.88;;
12467;SDS011;57850;52.922;6.256;2023-04-28T11:43:45;20.63;;;16.17;;
12467;SDS011;57850;52.922;6.256;2023-04-28T11:46:16;14.98;;;10.88;;
12467;SDS011;57850;52.922;6.256;2023-04-28T11:48:43;12.35;;;10.45;;
12467;SDS011;57850;52.922;6.256;2023-04-28T11:53:58;14.98;;;13.20;;
12467;SDS011;57850;52.922;6.256;2023-04-28T11:56:25;14.95;;;12.98;;
12467;SDS011;57850;52.922;6.256;2023-04-28T11:58:58;14.27;;;12.52;;
12467;SDS011;57850;52.922;6.256;2023-04-28T12:01:26;17.98;;;13.43;;
12467;SDS011;57850;52.922;6.256;2023-04-28T12:03:53;19.00;;;12.80;;
12467;SDS011;57850;52.922;6.256;2023-04-28T12:06:19;15.77;;;13.02;;
12467;SDS011;57850;52.922;6.256;2023-04-28T12:08:48;15.75;;;12.27;;
12467;SDS011;57850;52.922;6.256;2023-04-28T12:11:15;25.73;;;19.25;;
12467;SDS011;57850;52.922;6.256;2023-04-28T12:13:42;23.80;;;16.08;;
12467;SDS011;57850;52.922;6.256;2023-04-28T12:16:10;19.17;;;13.00;;
12467;SDS011;57850;52.922;6.256;2023-04-28T12:18:37;15.75;;;12.40;;
12467;SDS011;57850;52.922;6.256;2023-04-28T12:21:04;24.23;;;15.70;;
12467;SDS011;57850;52.922;6.256;2023-04-28T12:23:45;29.73;;;20.65;;
12467;SDS011;57850;52.922;6.256;2023-04-28T12:26:13;17.15;;;13.70;;
12467;SDS011;57850;52.922;6.256;2023-04-28T12:28:49;33.15;;;22.83;;
12467;SDS011;57850;52.922;6.256;2023-04-28T12:31:15;16.65;;;12.52;;
12467;SDS011;57850;52.922;6.256;2023-04-28T12:33:43;17.85;;;13.77;;
12467;SDS011;57850;52.922;6.256;2023-04-28T12:36:09;23.92;;;16.42;;
12467;SDS011;57850;52.922;6.256;2023-04-28T12:38:36;28.15;;;16.30;;
12467;SDS011;57850;52.922;6.256;2023-04-28T12:41:14;23.90;;;16.50;;
12467;SDS011;57850;52.922;6.256;2023-04-28T12:43:41;15.55;;;11.98;;
12467;SDS011;57850;52.922;6.256;2023-04-28T12:46:08;34.08;;;22.52;;
12467;SDS011;57850;52.922;6.256;2023-04-28T12:48:38;27.98;;;20.73;;
12467;SDS011;57850;52.922;6.256;2023-04-28T12:51:05;15.38;;;12.88;;
12467;SDS011;57850;52.922;6.256;2023-04-28T12:53:32;24.02;;;14.65;;
12467;SDS011;57850;52.922;6.256;2023-04-28T12:55:59;21.63;;;16.15;;
12467;SDS011;57850;52.922;6.256;2023-04-28T12:58:27;19.70;;;17.00;;
12467;SDS011;57850;52.922;6.256;2023-04-28T13:00:55;22.48;;;19.77;;
12467;SDS011;57850;52.922;6.256;2023-04-28T13:03:21;25.85;;;19.85;;
12467;SDS011;57850;52.922;6.256;2023-04-28T13:05:48;28.85;;;23.45;;
12467;SDS011;57850;52.922;6.256;2023-04-28T13:08:15;26.48;;;23.42;;
12467;SDS011;57850;52.922;6.256;2023-04-28T13:10:42;31.27;;;27.25;;
12467;SDS011;57850;52.922;6.256;2023-04-28T13:13:09;33.00;;;27.90;;
12467;SDS011;57850;52.922;6.256;2023-04-28T13:15:37;33.30;;;27.55;;
12467;SDS011;57850;52.922;6.256;2023-04-28T13:18:04;33.85;;;29.85;;
12467;SDS011;57850;52.922;6.256;2023-04-28T13:20:30;37.38;;;30.48;;
12467;SDS011;57850;52.922;6.256;2023-04-28T13:22:57;38.70;;;32.72;;
12467;SDS011;57850;52.922;6.256;2023-04-28T13:25:23;38.05;;;32.40;;
12467;SDS011;57850;52.922;6.256;2023-04-28T13:27:50;36.63;;;32.55;;
12467;SDS011;57850;52.922;6.256;2023-04-28T13:30:17;37.83;;;32.20;;
12467;SDS011;57850;52.922;6.256;2023-04-28T13:32:45;38.15;;;33.63;;
12467;SDS011;57850;52.922;6.256;2023-04-28T13:35:11;35.95;;;31.85;;
12467;SDS011;57850;52.922;6.256;2023-04-28T13:37:38;42.13;;;34.28;;
12467;SDS011;57850;52.922;6.256;2023-04-28T13:40:10;37.33;;;32.70;;
12467;SDS011;57850;52.922;6.256;2023-04-28T13:42:37;38.97;;;34.75;;
12467;SDS011;57850;52.922;6.256;2023-04-28T13:45:03;41.70;;;33.78;;
12467;SDS011;57850;52.922;6.256;2023-04-28T13:47:30;39.47;;;33.72;;
12467;SDS011;57850;52.922;6.256;2023-04-28T13:49:59;38.15;;;33.42;;
12467;SDS011;57850;52.922;6.256;2023-04-28T13:52:26;39.75;;;34.08;;
12467;SDS011;57850;52.922;6.256;2023-04-28T13:54:52;39.42;;;35.15;;
12467;SDS011;57850;52.922;6.256;2023-04-28T13:57:19;40.72;;;35.53;;
12467;SDS011;57850;52.922;6.256;2023-04-28T13:59:45;38.53;;;34.17;;
12467;SDS011;57850;52.922;6.256;2023-04-28T14:02:12;40.58;;;35.72;;
12467;SDS011;57850;52.922;6.256;2023-04-28T14:04:39;45.10;;;35.20;;
12467;SDS011;57850;52.922;6.256;2023-04-28T14:07:14;43.03;;;35.40;;
12467;SDS011;57850;52.922;6.256;2023-04-28T14:09:40;38.78;;;33.90;;
12467;SDS011;57850;52.922;6.256;2023-04-28T14:12:07;41.00;;;35.05;;
12467;SDS011;57850;52.922;6.256;2023-04-28T14:14:35;42.35;;;35.88;;
12467;SDS011;57850;52.922;6.256;2023-04-28T14:17:01;40.15;;;35.47;;
12467;SDS011;57850;52.922;6.256;2023-04-28T14:19:31;46.35;;;35.97;;
12467;SDS011;57850;52.922;6.256;2023-04-28T14:21:58;43.95;;;35.42;;
12467;SDS011;57850;52.922;6.256;2023-04-28T14:24:26;41.80;;;36.33;;
12467;SDS011;57850;52.922;6.256;2023-04-28T14:26:53;42.15;;;37.13;;
12467;SDS011;57850;52.922;6.256;2023-04-28T14:29:19;41.03;;;36.63;;
12467;SDS011;57850;52.922;6.256;2023-04-28T14:31:46;41.63;;;35.90;;
12467;SDS011;57850;52.922;6.256;2023-04-28T14:34:12;43.40;;;37.05;;
12467;SDS011;57850;52.922;6.256;2023-04-28T14:36:39;37.65;;;33.25;;
12467;SDS011;57850;52.922;6.256;2023-04-28T14:39:06;34.97;;;29.23;;
12467;SDS011;57850;52.922;6.256;2023-04-28T14:41:34;36.47;;;30.98;;
12467;SDS011;57850;52.922;6.256;2023-04-28T14:44:01;32.45;;;28.73;;
12467;SDS011;57850;52.922;6.256;2023-04-28T14:46:27;32.58;;;27.48;;
12467;SDS011;57850;52.922;6.256;2023-04-28T14:48:53;33.85;;;28.27;;
12467;SDS011;57850;52.922;6.256;2023-04-28T14:51:22;29.48;;;25.27;;